sensor_id;sensor_type;location;lat;lon;timestamp;pressure;altitude;pressure_sealevel;temperature;humidity
25855;BME280;13680;49.936;11.344;2024-03-22T00:01:39;97357.22;;;6.22;77.37
25855;BME280;13680;49.936;11.344;2024-03-22T00:04:05;97354.78;;;6.16;77.78
25855;BME280;13680;49.936;11.344;2024-03-22T00:06:30;97344.66;;;6.18;77.82
25855;BME280;13680;49.936;11.344;2024-03-22T00:08:55;97349.47;;;6.21;77.38
25855;BME280;13680;49.936;11.344;2024-03-22T00:11:20;97331.78;;;6.15;77.43
25855;BME280;13680;49.936;11.344;2024-03-22T00:13:46;97331.53;;;6.11;78.23
25855;BME280;13680;49.936;11.344;2024-03-22T00:16:11;97322.69;;;6.11;77.59
25855;BME280;13680;49.936;11.344;2024-03-22T00:18:37;97320.53;;;6.08;77.95
25855;BME280;13680;49.936;11.344;2024-03-22T00:21:02;97321.00;;;5.99;77.80
25855;BME280;13680;49.936;11.344;2024-03-22T00:23:28;97319.09;;;5.95;78.03
25855;BME280;13680;49.936;11.344;2024-03-22T00:25:55;97322.88;;;5.99;77.91
25855;BME280;13680;49.936;11.344;2024-03-22T00:28:20;97318.84;;;5.96;77.88
25855;BME280;13680;49.936;11.344;2024-03-22T00:30:45;97324.16;;;5.96;77.91
25855;BME280;13680;49.936;11.344;2024-03-22T00:33:11;97316.91;;;5.92;77.68
25855;BME280;13680;49.936;11.344;2024-03-22T00:35:36;97315.03;;;5.87;77.31
25855;BME280;13680;49.936;11.344;2024-03-22T00:38:01;97314.72;;;5.83;77.35
25855;BME280;13680;49.936;11.344;2024-03-22T00:40:27;97313.38;;;5.81;76.81
25855;BME280;13680;49.936;11.344;2024-03-22T00:42:52;97318.06;;;5.68;76.84
25855;BME280;13680;49.936;11.344;2024-03-22T00:45:17;97322.09;;;5.71;77.15
25855;BME280;13680;49.936;11.344;2024-03-22T00:47:43;97311.63;;;5.64;77.29
25855;BME280;13680;49.936;11.344;2024-03-22T00:50:08;97317.50;;;5.66;76.91
25855;BME280;13680;49.936;11.344;2024-03-22T00:52:34;97320.69;;;5.63;76.85
25855;BME280;13680;49.936;11.344;2024-03-22T00:54:59;97308.88;;;5.54;77.14
25855;BME280;13680;49.936;11.344;2024-03-22T00:57:24;97309.94;;;5.53;76.89
25855;BME280;13680;49.936;11.344;2024-03-22T00:59:50;97308.53;;;5.45;76.62
25855;BME280;13680;49.936;11.344;2024-03-22T01:02:15;97314.59;;;5.40;76.47
25855;BME280;13680;49.936;11.344;2024-03-22T01:04:40;97309.28;;;5.40;77.13
25855;BME280;13680;49.936;11.344;2024-03-22T01:07:06;97312.41;;;5.32;76.74
25855;BME280;13680;49.936;11.344;2024-03-22T01:09:31;97309.72;;;5.32;77.15
25855;BME280;13680;49.936;11.344;2024-03-22T01:11:56;97308.06;;;5.26;77.24
25855;BME280;13680;49.936;11.344;2024-03-22T01:14:22;97310.72;;;5.26;77.21
25855;BME280;13680;49.936;11.344;2024-03-22T01:16:47;97314.97;;;5.22;77.21
25855;BME280;13680;49.936;11.344;2024-03-22T01:19:12;97300.50;;;5.18;77.18
25855;BME280;13680;49.936;11.344;2024-03-22T01:21:38;97316.22;;;5.14;77.04
25855;BME280;13680;49.936;11.344;2024-03-22T01:24:03;97311.06;;;5.07;76.85
25855;BME280;13680;49.936;11.344;2024-03-22T01:26:28;97313.94;;;5.01;77.24
25855;BME280;13680;49.936;11.344;2024-03-22T01:28:54;97309.91;;;4.98;77.69
25855;BME280;13680;49.936;11.344;2024-03-22T01:31:19;97315.78;;;5.00;77.83
25855;BME280;13680;49.936;11.344;2024-03-22T01:33:44;97313.41;;;5.04;77.49
25855;BME280;13680;49.936;11.344;2024-03-22T01:36:10;97313.66;;;5.02;77.89
25855;BME280;13680;49.936;11.344;2024-03-22T01:38:35;97312.31;;;5.00;77.93
25855;BME280;13680;49.936;11.344;2024-03-22T01:41:00;97299.75;;;4.95;77.94
25855;BME280;13680;49.936;11.344;2024-03-22T01:43:26;97298.66;;;4.96;77.39
25855;BME280;13680;49.936;11.344;2024-03-22T01:45:51;97293.59;;;4.95;77.28
25855;BME280;13680;49.936;11.344;2024-03-22T01:48:16;97293.84;;;4.93;77.70
25855;BME280;13680;49.936;11.344;2024-03-22T01:50:42;97292.75;;;4.89;77.80
25855;BME280;13680;49.936;11.344;2024-03-22T01:53:08;97285.78;;;4.88;77.38
25855;BME280;13680;49.936;11.344;2024-03-22T01:55:34;97283.34;;;4.81;77.35
25855;BME280;13680;49.936;11.344;2024-03-22T01:57:59;97291.63;;;4.85;77.40
25855;BME280;13680;49.936;11.344;2024-03-22T02:00:25;97291.25;;;4.76;77.31
25855;BME280;13680;49.936;11.344;2024-03-22T02:02:50;97285.06;;;4.70;77.35
25855;BME280;13680;49.936;11.344;2024-03-22T02:05:17;97278.09;;;4.69;77.00
25855;BME280;13680;49.936;11.344;2024-03-22T02:07:45;97267.38;;;4.64;77.01
25855;BME280;13680;49.936;11.344;2024-03-22T02:10:11;97270.06;;;4.64;77.56
25855;BME280;13680;49.936;11.344;2024-03-22T02:12:38;97278.63;;;4.66;77.06
25855;BME280;13680;49.936;11.344;2024-03-22T02:15:04;97276.88;;;4.55;77.43
25855;BME280;13680;49.936;11.344;2024-03-22T02:17:29;97274.94;;;4.50;77.59
25855;BME280;13680;49.936;11.344;2024-03-22T02:19:54;97273.50;;;4.42;77.77
25855;BME280;13680;49.936;11.344;2024-03-22T02:22:20;97263.75;;;4.48;77.72
25855;BME280;13680;49.936;11.344;2024-03-22T02:24:45;97272.47;;;4.43;77.52
25855;BME280;13680;49.936;11.344;2024-03-22T02:27:10;97268.75;;;4.45;77.41
25855;BME280;13680;49.936;11.344;2024-03-22T02:29:36;97260.97;;;4.38;77.33
25855;BME280;13680;49.936;11.344;2024-03-22T02:32:01;97264.94;;;4.35;77.53
25855;BME280;13680;49.936;11.344;2024-03-22T02:34:26;97262.25;;;4.35;77.47
25855;BME280;13680;49.936;11.344;2024-03-22T02:36:52;97255.31;;;4.34;77.54
25855;BME280;13680;49.936;11.344;2024-03-22T02:39:17;97249.94;;;4.29;77.49
25855;BME280;13680;49.936;11.344;2024-03-22T02:41:42;97247.75;;;4.26;77.25
25855;BME280;13680;49.936;11.344;2024-03-22T02:44:08;97243.50;;;4.25;77.59
25855;BME280;13680;49.936;11.344;2024-03-22T02:46:33;97245.00;;;4.21;77.15
25855;BME280;13680;49.936;11.344;2024-03-22T02:48:58;97244.16;;;4.15;77.44
25855;BME280;13680;49.936;11.344;2024-03-22T02:51:24;97232.72;;;4.15;76.85
25855;BME280;13680;49.936;11.344;2024-03-22T02:53:50;97234.47;;;4.09;77.06
25855;BME280;13680;49.936;11.344;2024-03-22T02:56:15;97233.69;;;4.08;77.20
25855;BME280;13680;49.936;11.344;2024-03-22T02:58:40;97231.19;;;4.02;77.09
25855;BME280;13680;49.936;11.344;2024-03-22T03:01:06;97229.34;;;4.02;77.39
25855;BME280;13680;49.936;11.344;2024-03-22T03:03:31;97220.78;;;4.00;76.87
25855;BME280;13680;49.936;11.344;2024-03-22T03:05:56;97221.47;;;3.90;77.12
25855;BME280;13680;49.936;11.344;2024-03-22T03:08:21;97219.69;;;3.96;76.81
25855;BME280;13680;49.936;11.344;2024-03-22T03:10:47;97220.97;;;3.93;76.95
25855;BME280;13680;49.936;11.344;2024-03-22T03:13:12;97225.50;;;3.93;77.08
25855;BME280;13680;49.936;11.344;2024-03-22T03:15:37;97220.66;;;3.90;77.27
25855;BME280;13680;49.936;11.344;2024-03-22T03:18:03;97221.69;;;3.89;77.22
25855;BME280;13680;49.936;11.344;2024-03-22T03:20:30;97219.34;;;3.92;77.52
25855;BME280;13680;49.936;11.344;2024-03-22T03:22:55;97215.81;;;3.87;77.66
25855;BME280;13680;49.936;11.344;2024-03-22T03:25:24;97213.72;;;3.89;77.71
25855;BME280;13680;49.936;11.344;2024-03-22T03:27:50;97210.56;;;3.92;77.67
25855;BME280;13680;49.936;11.344;2024-03-22T03:30:15;97212.75;;;3.95;77.74
25855;BME280;13680;49.936;11.344;2024-03-22T03:32:40;97218.38;;;3.99;77.98
25855;BME280;13680;49.936;11.344;2024-03-22T03:35:06;97214.66;;;4.00;77.83
25855;BME280;13680;49.936;11.344;2024-03-22T03:37:31;97213.06;;;3.99;78.08
25855;BME280;13680;49.936;11.344;2024-03-22T03:39:57;97216.50;;;3.99;78.03
25855;BME280;13680;49.936;11.344;2024-03-22T03:42:22;97208.84;;;4.03;78.02
25855;BME280;13680;49.936;11.344;2024-03-22T03:44:47;97206.44;;;4.01;78.47
25855;BME280;13680;49.936;11.344;2024-03-22T03:47:13;97208.59;;;4.04;77.88
25855;BME280;13680;49.936;11.344;2024-03-22T03:49:38;97206.56;;;4.12;77.82
25855;BME280;13680;49.936;11.344;2024-03-22T03:52:03;97211.91;;;4.12;77.84
25855;BME280;13680;49.936;11.344;2024-03-22T03:54:29;97209.16;;;4.06;77.82
25855;BME280;13680;49.936;11.344;2024-03-22T03:56:54;97212.94;;;4.10;78.10
25855;BME280;13680;49.936;11.344;2024-03-22T03:59:19;97209.75;;;4.08;77.82
25855;BME280;13680;49.936;11.344;2024-03-22T04:01:44;97212.94;;;4.10;78.33
25855;BME280;13680;49.936;11.344;2024-03-22T04:04:10;97215.13;;;4.14;78.06
25855;BME280;13680;49.936;11.344;2024-03-22T04:06:35;97209.97;;;4.07;78.20
25855;BME280;13680;49.936;11.344;2024-03-22T04:09:01;97210.84;;;4.13;78.33
25855;BME280;13680;49.936;11.344;2024-03-22T04:11:28;97208.25;;;4.18;78.24
25855;BME280;13680;49.936;11.344;2024-03-22T04:13:53;97215.72;;;4.21;77.95
25855;BME280;13680;49.936;11.344;2024-03-22T04:16:18;97208.00;;;4.19;77.76
25855;BME280;13680;49.936;11.344;2024-03-22T04:18:44;97211.09;;;4.11;78.29
25855;BME280;13680;49.936;11.344;2024-03-22T04:21:09;97207.63;;;4.10;78.15
25855;BME280;13680;49.936;11.344;2024-03-22T04:23:34;97210.84;;;4.13;78.17
25855;BME280;13680;49.936;11.344;2024-03-22T04:26:01;97204.97;;;4.10;78.55
25855;BME280;13680;49.936;11.344;2024-03-22T04:28:27;97200.13;;;4.07;78.22
25855;BME280;13680;49.936;11.344;2024-03-22T04:31:09;97209.16;;;4.06;78.27
25855;BME280;13680;49.936;11.344;2024-03-22T04:33:34;97206.50;;;4.06;78.17
25855;BME280;13680;49.936;11.344;2024-03-22T04:36:00;97205.22;;;4.09;78.00
25855;BME280;13680;49.936;11.344;2024-03-22T04:38:27;97201.44;;;4.05;77.80
25855;BME280;13680;49.936;11.344;2024-03-22T04:40:53;97201.63;;;3.98;77.88
25855;BME280;13680;49.936;11.344;2024-03-22T04:43:19;97200.00;;;3.97;77.85
25855;BME280;13680;49.936;11.344;2024-03-22T04:45:45;97202.09;;;3.95;77.83
25855;BME280;13680;49.936;11.344;2024-03-22T04:48:13;97202.59;;;3.92;77.74
25855;BME280;13680;49.936;11.344;2024-03-22T04:50:39;97203.06;;;3.89;77.68
25855;BME280;13680;49.936;11.344;2024-03-22T04:53:04;97202.03;;;3.90;77.41
25855;BME280;13680;49.936;11.344;2024-03-22T04:55:31;97204.03;;;3.83;77.44
25855;BME280;13680;49.936;11.344;2024-03-22T04:57:56;97200.00;;;3.80;77.24
25855;BME280;13680;49.936;11.344;2024-03-22T05:00:21;97201.25;;;3.72;77.40
25855;BME280;13680;49.936;11.344;2024-03-22T05:02:47;97190.59;;;3.72;77.65
25855;BME280;13680;49.936;11.344;2024-03-22T05:05:13;97194.56;;;3.70;77.48
25855;BME280;13680;49.936;11.344;2024-03-22T05:07:38;97187.88;;;3.67;77.36
25855;BME280;13680;49.936;11.344;2024-03-22T05:10:04;97179.50;;;3.58;77.42
25855;BME280;13680;49.936;11.344;2024-03-22T05:12:29;97177.16;;;3.62;77.89
25855;BME280;13680;49.936;11.344;2024-03-22T05:14:55;97174.44;;;3.57;77.56
25855;BME280;13680;49.936;11.344;2024-03-22T05:17:20;97170.16;;;3.56;77.79
25855;BME280;13680;49.936;11.344;2024-03-22T05:19:46;97168.63;;;3.60;77.55
25855;BME280;13680;49.936;11.344;2024-03-22T05:22:11;97166.69;;;3.55;77.18
25855;BME280;13680;49.936;11.344;2024-03-22T05:24:36;97167.50;;;3.56;77.30
25855;BME280;13680;49.936;11.344;2024-03-22T05:27:02;97163.78;;;3.57;77.56
25855;BME280;13680;49.936;11.344;2024-03-22T05:29:27;97160.66;;;3.60;77.32
25855;BME280;13680;49.936;11.344;2024-03-22T05:31:53;97163.78;;;3.57;77.25
25855;BME280;13680;49.936;11.344;2024-03-22T05:34:18;97158.22;;;3.58;77.36
25855;BME280;13680;49.936;11.344;2024-03-22T05:36:45;97159.22;;;3.52;77.37
25855;BME280;13680;49.936;11.344;2024-03-22T05:39:11;97164.63;;;3.57;77.52
25855;BME280;13680;49.936;11.344;2024-03-22T05:41:37;97154.28;;;3.61;77.35
25855;BME280;13680;49.936;11.344;2024-03-22T05:44:02;97158.47;;;3.57;77.82
25855;BME280;13680;49.936;11.344;2024-03-22T05:46:29;97150.34;;;3.64;77.54
25855;BME280;13680;49.936;11.344;2024-03-22T05:48:55;97146.84;;;3.63;77.88
25855;BME280;13680;49.936;11.344;2024-03-22T05:51:20;97140.25;;;3.66;77.87
25855;BME280;13680;49.936;11.344;2024-03-22T05:53:46;97142.44;;;3.69;77.87
25855;BME280;13680;49.936;11.344;2024-03-22T05:56:11;97136.94;;;3.75;77.98
25855;BME280;13680;49.936;11.344;2024-03-22T05:58:36;97135.38;;;3.80;78.52
25855;BME280;13680;49.936;11.344;2024-03-22T06:01:02;97139.72;;;3.86;78.47
25855;BME280;13680;49.936;11.344;2024-03-22T06:03:30;97134.03;;;3.99;78.35
25855;BME280;13680;49.936;11.344;2024-03-22T06:05:56;97137.00;;;4.03;78.28
25855;BME280;13680;49.936;11.344;2024-03-22T06:08:25;97128.84;;;4.09;78.77
25855;BME280;13680;49.936;11.344;2024-03-22T06:10:52;97127.66;;;4.22;78.50
25855;BME280;13680;49.936;11.344;2024-03-22T06:13:17;97134.88;;;4.27;78.75
25855;BME280;13680;49.936;11.344;2024-03-22T06:15:43;97130.50;;;4.38;78.38
25855;BME280;13680;49.936;11.344;2024-03-22T06:18:11;97127.44;;;4.51;78.18
25855;BME280;13680;49.936;11.344;2024-03-22T06:20:36;97119.13;;;4.48;78.56
25855;BME280;13680;49.936;11.344;2024-03-22T06:23:03;97123.56;;;4.64;78.24
25855;BME280;13680;49.936;11.344;2024-03-22T06:25:28;97115.06;;;4.67;79.02
25855;BME280;13680;49.936;11.344;2024-03-22T06:27:54;97119.75;;;4.82;78.72
25855;BME280;13680;49.936;11.344;2024-03-22T06:30:20;97115.22;;;4.83;79.04
25855;BME280;13680;49.936;11.344;2024-03-22T06:32:45;97113.19;;;4.95;78.51
25855;BME280;13680;49.936;11.344;2024-03-22T06:35:10;97114.28;;;4.99;79.01
25855;BME280;13680;49.936;11.344;2024-03-22T06:37:38;97107.72;;;5.12;78.51
25855;BME280;13680;49.936;11.344;2024-03-22T06:40:04;97112.53;;;5.15;79.09
25855;BME280;13680;49.936;11.344;2024-03-22T06:42:30;97105.41;;;5.26;78.82
25855;BME280;13680;49.936;11.344;2024-03-22T06:44:55;97100.13;;;5.31;79.03
25855;BME280;13680;49.936;11.344;2024-03-22T06:47:20;97101.78;;;5.37;79.05
25855;BME280;13680;49.936;11.344;2024-03-22T06:49:47;97100.81;;;5.54;78.95
25855;BME280;13680;49.936;11.344;2024-03-22T06:52:12;97097.56;;;5.52;79.42
25855;BME280;13680;49.936;11.344;2024-03-22T06:54:37;97099.50;;;5.62;79.33
25855;BME280;13680;49.936;11.344;2024-03-22T06:57:03;97101.47;;;5.77;79.44
25855;BME280;13680;49.936;11.344;2024-03-22T06:59:28;97103.91;;;5.88;79.94
25855;BME280;13680;49.936;11.344;2024-03-22T07:01:53;97102.59;;;5.91;80.09
25855;BME280;13680;49.936;11.344;2024-03-22T07:04:19;97101.63;;;6.08;80.28
25855;BME280;13680;49.936;11.344;2024-03-22T07:06:44;97101.13;;;6.21;80.08
25855;BME280;13680;49.936;11.344;2024-03-22T07:09:09;97096.34;;;6.28;79.95
25855;BME280;13680;49.936;11.344;2024-03-22T07:11:35;97087.81;;;6.42;79.85
25855;BME280;13680;49.936;11.344;2024-03-22T07:14:00;97086.75;;;6.53;80.00
25855;BME280;13680;49.936;11.344;2024-03-22T07:16:25;97088.94;;;6.61;80.08
25855;BME280;13680;49.936;11.344;2024-03-22T07:18:51;97083.59;;;6.71;80.34
25855;BME280;13680;49.936;11.344;2024-03-22T07:21:16;97086.28;;;6.77;80.24
25855;BME280;13680;49.936;11.344;2024-03-22T07:23:42;97093.75;;;6.85;79.99
25855;BME280;13680;49.936;11.344;2024-03-22T07:26:07;97093.22;;;6.93;79.94
25855;BME280;13680;49.936;11.344;2024-03-22T07:28:33;97085.47;;;6.97;80.00
25855;BME280;13680;49.936;11.344;2024-03-22T07:30:59;97084.69;;;7.22;80.06
25855;BME280;13680;49.936;11.344;2024-03-22T07:33:24;97078.47;;;7.37;80.87
25855;BME280;13680;49.936;11.344;2024-03-22T07:35:49;97083.00;;;7.52;81.70
25855;BME280;13680;49.936;11.344;2024-03-22T07:38:15;97077.06;;;7.65;81.74
25855;BME280;13680;49.936;11.344;2024-03-22T07:40:40;97083.97;;;7.82;81.69
25855;BME280;13680;49.936;11.344;2024-03-22T07:43:05;97084.47;;;7.99;81.31
25855;BME280;13680;49.936;11.344;2024-03-22T07:45:33;97081.72;;;8.10;82.27
25855;BME280;13680;49.936;11.344;2024-03-22T07:47:59;97080.03;;;8.34;82.30
25855;BME280;13680;49.936;11.344;2024-03-22T07:50:25;97084.22;;;8.56;82.28
25855;BME280;13680;49.936;11.344;2024-03-22T07:52:50;97082.00;;;8.63;81.83
25855;BME280;13680;49.936;11.344;2024-03-22T07:55:15;97083.50;;;8.80;81.63
25855;BME280;13680;49.936;11.344;2024-03-22T07:57:41;97080.19;;;8.93;81.44
25855;BME280;13680;49.936;11.344;2024-03-22T08:00:06;97085.09;;;9.15;80.18
25855;BME280;13680;49.936;11.344;2024-03-22T08:02:32;97087.44;;;9.22;79.81
25855;BME280;13680;49.936;11.344;2024-03-22T08:04:58;97085.66;;;9.42;79.13
25855;BME280;13680;49.936;11.344;2024-03-22T08:07:23;97084.53;;;9.48;79.63
25855;BME280;13680;49.936;11.344;2024-03-22T08:09:49;97081.47;;;9.60;78.40
25855;BME280;13680;49.936;11.344;2024-03-22T08:12:15;97073.47;;;9.79;77.67
25855;BME280;13680;49.936;11.344;2024-03-22T08:14:40;97068.88;;;10.04;76.63
25855;BME280;13680;49.936;11.344;2024-03-22T08:17:07;97075.03;;;10.28;76.38
25855;BME280;13680;49.936;11.344;2024-03-22T08:19:34;97064.16;;;10.58;76.32
25855;BME280;13680;49.936;11.344;2024-03-22T08:21:59;97069.34;;;10.87;74.09
25855;BME280;13680;49.936;11.344;2024-03-22T08:24:25;97068.06;;;10.66;73.45
25855;BME280;13680;49.936;11.344;2024-03-22T08:26:50;97065.09;;;10.67;73.57
25855;BME280;13680;49.936;11.344;2024-03-22T08:29:15;97058.31;;;10.70;73.85
25855;BME280;13680;49.936;11.344;2024-03-22T08:31:41;97051.69;;;10.81;73.48
25855;BME280;13680;49.936;11.344;2024-03-22T08:34:08;97055.22;;;10.95;73.58
25855;BME280;13680;49.936;11.344;2024-03-22T08:36:34;97053.69;;;11.22;72.25
25855;BME280;13680;49.936;11.344;2024-03-22T08:38:59;97059.31;;;11.40;70.08
25855;BME280;13680;49.936;11.344;2024-03-22T08:41:24;97056.78;;;12.04;70.73
25855;BME280;13680;49.936;11.344;2024-03-22T08:43:49;97041.59;;;12.45;69.89
25855;BME280;13680;49.936;11.344;2024-03-22T08:46:15;97042.06;;;12.84;65.41
25855;BME280;13680;49.936;11.344;2024-03-22T08:48:40;97039.47;;;13.55;65.62
25855;BME280;13680;49.936;11.344;2024-03-22T08:51:05;97038.97;;;13.45;65.24
25855;BME280;13680;49.936;11.344;2024-03-22T08:53:31;97034.25;;;14.17;63.11
25855;BME280;13680;49.936;11.344;2024-03-22T08:55:56;97024.91;;;14.49;59.80
25855;BME280;13680;49.936;11.344;2024-03-22T08:58:21;97027.16;;;14.65;59.01
25855;BME280;13680;49.936;11.344;2024-03-22T09:00:47;97020.28;;;14.59;59.81
25855;BME280;13680;49.936;11.344;2024-03-22T09:03:12;97014.53;;;14.34;59.07
25855;BME280;13680;49.936;11.344;2024-03-22T09:05:38;97013.91;;;14.37;58.00
25855;BME280;13680;49.936;11.344;2024-03-22T09:08:04;97007.97;;;13.91;59.74
25855;BME280;13680;49.936;11.344;2024-03-22T09:10:30;97008.94;;;14.04;60.26
25855;BME280;13680;49.936;11.344;2024-03-22T09:12:55;96998.91;;;14.13;59.52
25855;BME280;13680;49.936;11.344;2024-03-22T09:15:21;96997.19;;;14.17;61.21
25855;BME280;13680;49.936;11.344;2024-03-22T09:17:46;96996.66;;;13.98;60.64
25855;BME280;13680;49.936;11.344;2024-03-22T09:20:12;96998.00;;;14.27;59.29
25855;BME280;13680;49.936;11.344;2024-03-22T09:22:37;96997.03;;;14.31;59.68
25855;BME280;13680;49.936;11.344;2024-03-22T09:25:04;96985.75;;;14.38;59.57
25855;BME280;13680;49.936;11.344;2024-03-22T09:27:31;96987.63;;;14.37;59.14
25855;BME280;13680;49.936;11.344;2024-03-22T09:29:57;96980.78;;;14.40;59.14
25855;BME280;13680;49.936;11.344;2024-03-22T09:32:23;96977.78;;;14.33;59.33
25855;BME280;13680;49.936;11.344;2024-03-22T09:34:49;96986.53;;;14.30;59.87
25855;BME280;13680;49.936;11.344;2024-03-22T09:37:15;96981.13;;;14.56;59.89
25855;BME280;13680;49.936;11.344;2024-03-22T09:39:40;96984.16;;;14.72;59.63
25855;BME280;13680;49.936;11.344;2024-03-22T09:42:06;96979.38;;;14.86;59.19
25855;BME280;13680;49.936;11.344;2024-03-22T09:44:32;96973.41;;;15.11;58.36
25855;BME280;13680;49.936;11.344;2024-03-22T09:46:59;96965.38;;;15.23;58.08
25855;BME280;13680;49.936;11.344;2024-03-22T09:49:24;96968.81;;;14.94;57.19
25855;BME280;13680;49.936;11.344;2024-03-22T09:51:51;96961.06;;;14.75;57.34
25855;BME280;13680;49.936;11.344;2024-03-22T09:54:17;96956.66;;;15.17;57.49
25855;BME280;13680;49.936;11.344;2024-03-22T09:56:43;96959.34;;;15.17;57.83
25855;BME280;13680;49.936;11.344;2024-03-22T09:59:10;96949.34;;;15.48;57.64
25855;BME280;13680;49.936;11.344;2024-03-22T10:01:36;96948.19;;;15.19;55.67
25855;BME280;13680;49.936;11.344;2024-03-22T10:04:02;96947.50;;;15.31;55.39
25855;BME280;13680;49.936;11.344;2024-03-22T10:06:29;96942.41;;;14.82;56.43
25855;BME280;13680;49.936;11.344;2024-03-22T10:08:54;96936.03;;;15.34;55.84
25855;BME280;13680;49.936;11.344;2024-03-22T10:11:20;96944.75;;;15.01;54.32
25855;BME280;13680;49.936;11.344;2024-03-22T10:13:46;96937.47;;;15.61;54.09
25855;BME280;13680;49.936;11.344;2024-03-22T10:16:16;96935.84;;;15.99;52.05
25855;BME280;13680;49.936;11.344;2024-03-22T10:18:41;96926.63;;;16.12;50.97
25855;BME280;13680;49.936;11.344;2024-03-22T10:21:07;96926.63;;;16.12;49.97
25855;BME280;13680;49.936;11.344;2024-03-22T10:23:32;96933.53;;;15.80;49.94
25855;BME280;13680;49.936;11.344;2024-03-22T10:25:59;96932.81;;;16.22;49.85
25855;BME280;13680;49.936;11.344;2024-03-22T10:28:25;96921.13;;;16.21;49.28
25855;BME280;13680;49.936;11.344;2024-03-22T10:30:51;96924.25;;;15.90;49.39
25855;BME280;13680;49.936;11.344;2024-03-22T10:33:19;96912.94;;;16.30;49.11
25855;BME280;13680;49.936;11.344;2024-03-22T10:35:46;96910.81;;;16.14;48.77
25855;BME280;13680;49.936;11.344;2024-03-22T10:38:12;96899.00;;;16.31;48.78
25855;BME280;13680;49.936;11.344;2024-03-22T10:40:39;96901.75;;;16.77;47.77
25855;BME280;13680;49.936;11.344;2024-03-22T10:43:05;96893.38;;;17.16;47.10
25855;BME280;13680;49.936;11.344;2024-03-22T10:45:31;96884.31;;;17.24;46.41
25855;BME280;13680;49.936;11.344;2024-03-22T10:47:57;96889.50;;;17.42;47.05
25855;BME280;13680;49.936;11.344;2024-03-22T10:50:23;96889.59;;;16.50;47.61
25855;BME280;13680;49.936;11.344;2024-03-22T10:52:58;96881.38;;;16.59;47.59
25855;BME280;13680;49.936;11.344;2024-03-22T10:55:28;96885.22;;;16.24;48.20
25855;BME280;13680;49.936;11.344;2024-03-22T10:57:56;96880.06;;;16.10;49.35
25855;BME280;13680;49.936;11.344;2024-03-22T11:00:32;96869.13;;;16.52;47.93
25855;BME280;13680;49.936;11.344;2024-03-22T11:02:59;96863.97;;;16.60;47.52
25855;BME280;13680;49.936;11.344;2024-03-22T11:05:25;96865.94;;;16.38;47.16
25855;BME280;13680;49.936;11.344;2024-03-22T11:08:01;96853.28;;;16.42;48.00
25855;BME280;13680;49.936;11.344;2024-03-22T11:10:29;96854.53;;;16.91;46.87
25855;BME280;13680;49.936;11.344;2024-03-22T11:12:55;96851.88;;;16.82;46.25
25855;BME280;13680;49.936;11.344;2024-03-22T11:15:22;96848.41;;;16.94;46.52
25855;BME280;13680;49.936;11.344;2024-03-22T11:17:47;96836.47;;;16.74;48.22
25855;BME280;13680;49.936;11.344;2024-03-22T11:20:14;96833.13;;;17.14;47.64
25855;BME280;13680;49.936;11.344;2024-03-22T11:22:40;96824.38;;;17.45;47.71
25855;BME280;13680;49.936;11.344;2024-03-22T11:25:06;96823.94;;;17.84;46.98
25855;BME280;13680;49.936;11.344;2024-03-22T11:27:32;96818.66;;;17.63;45.28
25855;BME280;13680;49.936;11.344;2024-03-22T11:29:57;96819.84;;;16.88;47.46
25855;BME280;13680;49.936;11.344;2024-03-22T11:32:23;96824.06;;;17.22;47.31
25855;BME280;13680;49.936;11.344;2024-03-22T11:34:49;96810.97;;;17.65;46.87
25855;BME280;13680;49.936;11.344;2024-03-22T11:37:14;96802.28;;;17.88;46.06
25855;BME280;13680;49.936;11.344;2024-03-22T11:39:40;96814.22;;;17.17;46.38
25855;BME280;13680;49.936;11.344;2024-03-22T11:42:06;96807.25;;;17.45;46.82
25855;BME280;13680;49.936;11.344;2024-03-22T11:44:36;96801.47;;;17.99;46.29
25855;BME280;13680;49.936;11.344;2024-03-22T11:47:02;96791.97;;;17.93;46.34
25855;BME280;13680;49.936;11.344;2024-03-22T11:49:28;96792.34;;;18.68;45.18
25855;BME280;13680;49.936;11.344;2024-03-22T11:51:55;96780.19;;;18.81;47.05
25855;BME280;13680;49.936;11.344;2024-03-22T11:54:21;96783.44;;;19.55;44.98
25855;BME280;13680;49.936;11.344;2024-03-22T11:56:46;96774.78;;;19.33;43.92
25855;BME280;13680;49.936;11.344;2024-03-22T11:59:11;96777.94;;;19.90;42.74
25855;BME280;13680;49.936;11.344;2024-03-22T12:01:37;96775.66;;;18.86;43.28
25855;BME280;13680;49.936;11.344;2024-03-22T12:04:02;96774.22;;;19.24;43.58
25855;BME280;13680;49.936;11.344;2024-03-22T12:06:27;96768.75;;;19.24;43.60
25855;BME280;13680;49.936;11.344;2024-03-22T12:08:53;96762.53;;;19.07;43.78
25855;BME280;13680;49.936;11.344;2024-03-22T12:11:18;96766.16;;;18.63;43.79
25855;BME280;13680;49.936;11.344;2024-03-22T12:13:44;96752.41;;;19.43;43.91
25855;BME280;13680;49.936;11.344;2024-03-22T12:16:10;96755.28;;;19.70;42.75
25855;BME280;13680;49.936;11.344;2024-03-22T12:18:35;96758.81;;;19.16;42.59
25855;BME280;13680;49.936;11.344;2024-03-22T12:21:01;96756.81;;;19.12;43.12
25855;BME280;13680;49.936;11.344;2024-03-22T12:23:26;96749.75;;;19.67;42.67
25855;BME280;13680;49.936;11.344;2024-03-22T12:25:52;96740.84;;;19.50;42.35
25855;BME280;13680;49.936;11.344;2024-03-22T12:28:18;96751.88;;;19.18;43.45
25855;BME280;13680;49.936;11.344;2024-03-22T12:30:43;96738.97;;;19.35;43.79
25855;BME280;13680;49.936;11.344;2024-03-22T12:33:10;96734.53;;;19.26;43.08
25855;BME280;13680;49.936;11.344;2024-03-22T12:35:41;96731.47;;;19.12;43.23
25855;BME280;13680;49.936;11.344;2024-03-22T12:38:06;96730.63;;;17.96;45.48
25855;BME280;13680;49.936;11.344;2024-03-22T12:40:34;96726.34;;;18.75;45.13
25855;BME280;13680;49.936;11.344;2024-03-22T12:42:59;96730.22;;;18.58;44.42
25855;BME280;13680;49.936;11.344;2024-03-22T12:45:25;96720.06;;;18.39;45.34
25855;BME280;13680;49.936;11.344;2024-03-22T12:47:51;96722.56;;;18.63;45.24
25855;BME280;13680;49.936;11.344;2024-03-22T12:50:16;96715.34;;;18.87;44.59